KLM737 LFLL-LFRS
Flight info
| Callsign | KLM737 |
|---|---|
| Flight time | 0h 53m |
| Altitude | 28000 |
| Route | BELEP H38 TIS DCT VALKU DCT PECNO DCT LMG DCT MANAK |
| Aircraft | B739/M-SDE2E3FGHIRWXY/LB1 |
Departure
| Time | 2026-05-03 20:15 |
|---|---|
| Airport | Lyon Saint-Exupéry Airport (LFLL) |
Arrival
| Time | 2026-05-03 21:08 |
|---|---|
| Airport | Nantes Atlantique Airport (LFRS) |
| Time | Latitude | Longitude | Altitude | Speed | Heading |
|---|---|---|---|---|---|
| 2026-05-03 20:15 | 45.59079 | 5.07389 | 7704 ft | 262 kts | 234° |
| 2026-05-03 20:15 | 45.58314 | 5.04979 | 8417 ft | 273 kts | 250° |
| 2026-05-03 20:15 | 45.57856 | 5.02330 | 9240 ft | 276 kts | 255° |
| 2026-05-03 20:15 | 45.57449 | 4.99620 | 9996 ft | 281 kts | 255° |
| 2026-05-03 20:16 | 45.57030 | 4.96880 | 10467 ft | 295 kts | 255° |
| 2026-05-03 20:16 | 45.56554 | 4.93907 | 10640 ft | 319 kts | 255° |
| 2026-05-03 20:16 | 45.56032 | 4.90720 | 10813 ft | 341 kts | 255° |
| 2026-05-03 20:16 | 45.55491 | 4.87311 | 10999 ft | 361 kts | 259° |
| 2026-05-03 20:17 | 45.55597 | 4.83677 | 11446 ft | 376 kts | 282° |
| 2026-05-03 20:17 | 45.56531 | 4.80165 | 12165 ft | 380 kts | 292° |
| 2026-05-03 20:17 | 45.57679 | 4.76757 | 12828 ft | 384 kts | 294° |
| 2026-05-03 20:17 | 45.58883 | 4.73335 | 13477 ft | 387 kts | 295° |
| 2026-05-03 20:18 | 45.59691 | 4.71045 | 13883 ft | 389 kts | 294° |
| 2026-05-03 20:18 | 45.60908 | 4.67572 | 14459 ft | 393 kts | 294° |
| 2026-05-03 20:18 | 45.62128 | 4.64049 | 15008 ft | 397 kts | 294° |
| 2026-05-03 20:18 | 45.63348 | 4.60486 | 15546 ft | 401 kts | 293° |
| 2026-05-03 20:19 | 45.64572 | 4.56883 | 16100 ft | 405 kts | 293° |
| 2026-05-03 20:19 | 45.65803 | 4.53242 | 16635 ft | 408 kts | 293° |
| 2026-05-03 20:19 | 45.67043 | 4.49562 | 17179 ft | 412 kts | 293° |
| 2026-05-03 20:19 | 45.68294 | 4.45841 | 17710 ft | 416 kts | 292° |
| 2026-05-03 20:20 | 45.69551 | 4.42096 | 18229 ft | 420 kts | 293° |
| 2026-05-03 20:20 | 45.70819 | 4.38315 | 18672 ft | 423 kts | 293° |
| 2026-05-03 20:20 | 45.72093 | 4.34514 | 19197 ft | 424 kts | 292° |
| 2026-05-03 20:20 | 45.73354 | 4.30746 | 19746 ft | 425 kts | 292° |
| 2026-05-03 20:21 | 45.74629 | 4.26930 | 20247 ft | 427 kts | 291° |
| 2026-05-03 20:21 | 45.75913 | 4.23081 | 20727 ft | 429 kts | 291° |
| 2026-05-03 20:21 | 45.77201 | 4.19218 | 21216 ft | 430 kts | 291° |
| 2026-05-03 20:21 | 45.78489 | 4.15343 | 21687 ft | 432 kts | 291° |
| 2026-05-03 20:22 | 45.79652 | 4.11368 | 22133 ft | 430 kts | 282° |
| 2026-05-03 20:22 | 45.80370 | 4.07218 | 22602 ft | 428 kts | 278° |
| 2026-05-03 20:22 | 45.80971 | 4.03037 | 23075 ft | 429 kts | 277° |
| 2026-05-03 20:22 | 45.81560 | 3.98828 | 23525 ft | 431 kts | 277° |
| 2026-05-03 20:23 | 45.82168 | 3.94609 | 23880 ft | 433 kts | 277° |
| 2026-05-03 20:23 | 45.82799 | 3.90379 | 24214 ft | 437 kts | 278° |
| 2026-05-03 20:23 | 45.83454 | 3.86096 | 24479 ft | 441 kts | 278° |
| 2026-05-03 20:23 | 45.84120 | 3.81798 | 24860 ft | 442 kts | 278° |
| 2026-05-03 20:24 | 45.84765 | 3.77476 | 25270 ft | 441 kts | 276° |
| 2026-05-03 20:24 | 45.85264 | 3.73136 | 25635 ft | 442 kts | 274° |
| 2026-05-03 20:24 | 45.85675 | 3.68825 | 25973 ft | 442 kts | 273° |
| 2026-05-03 20:24 | 45.86065 | 3.64436 | 26344 ft | 443 kts | 273° |
| 2026-05-03 20:25 | 45.86451 | 3.60056 | 26830 ft | 441 kts | 273° |
| 2026-05-03 20:25 | 45.86845 | 3.55704 | 27417 ft | 437 kts | 273° |
| 2026-05-03 20:25 | 45.87243 | 3.51395 | 27944 ft | 434 kts | 273° |
| 2026-05-03 20:25 | 45.87647 | 3.47089 | 27971 ft | 436 kts | 273° |
| 2026-05-03 20:26 | 45.88054 | 3.42784 | 27991 ft | 435 kts | 273° |
| 2026-05-03 20:26 | 45.88463 | 3.38485 | 27990 ft | 434 kts | 273° |
| 2026-05-03 20:26 | 45.88870 | 3.34198 | 27999 ft | 434 kts | 273° |
| 2026-05-03 20:26 | 45.89276 | 3.29910 | 27990 ft | 433 kts | 273° |
| 2026-05-03 20:27 | 45.89681 | 3.25623 | 28011 ft | 433 kts | 273° |
| 2026-05-03 20:27 | 45.90479 | 3.17105 | 27991 ft | 433 kts | 273° |
| 2026-05-03 20:28 | 45.91276 | 3.08532 | 27998 ft | 434 kts | 274° |
| 2026-05-03 20:28 | 45.91672 | 3.04238 | 27993 ft | 434 kts | 273° |
| 2026-05-03 20:28 | 45.92067 | 2.99936 | 27994 ft | 434 kts | 274° |
| 2026-05-03 20:28 | 45.92462 | 2.95625 | 27992 ft | 435 kts | 274° |
| 2026-05-03 20:29 | 45.92855 | 2.91316 | 27990 ft | 435 kts | 273° |
| 2026-05-03 20:29 | 45.93247 | 2.87006 | 27990 ft | 435 kts | 273° |
| 2026-05-03 20:29 | 45.93637 | 2.82700 | 28001 ft | 435 kts | 274° |
| 2026-05-03 20:29 | 45.94026 | 2.78382 | 27993 ft | 436 kts | 274° |
| 2026-05-03 20:30 | 45.94414 | 2.74062 | 28007 ft | 436 kts | 273° |
| 2026-05-03 20:30 | 45.94800 | 2.69729 | 27996 ft | 437 kts | 273° |
| 2026-05-03 20:30 | 45.95185 | 2.65405 | 27999 ft | 437 kts | 273° |
| 2026-05-03 20:30 | 45.95569 | 2.61069 | 27994 ft | 437 kts | 273° |
| 2026-05-03 20:31 | 45.95950 | 2.56740 | 27990 ft | 437 kts | 273° |
| 2026-05-03 20:31 | 45.96330 | 2.52410 | 27994 ft | 437 kts | 273° |
| 2026-05-03 20:31 | 45.96709 | 2.48073 | 27994 ft | 437 kts | 273° |
| 2026-05-03 20:31 | 45.97085 | 2.43744 | 27991 ft | 437 kts | 273° |
| 2026-05-03 20:32 | 45.97460 | 2.39412 | 27997 ft | 437 kts | 273° |
| 2026-05-03 20:32 | 45.98207 | 2.30728 | 27999 ft | 438 kts | 272° |
| 2026-05-03 20:33 | 45.98946 | 2.22040 | 27996 ft | 438 kts | 272° |
| 2026-05-03 20:33 | 45.99315 | 2.17684 | 27993 ft | 439 kts | 272° |
| 2026-05-03 20:33 | 45.99677 | 2.13383 | 27988 ft | 439 kts | 272° |
| 2026-05-03 20:33 | 46.00048 | 2.08966 | 27985 ft | 439 kts | 272° |
| 2026-05-03 20:34 | 46.00407 | 2.04657 | 27987 ft | 439 kts | 272° |
| 2026-05-03 20:34 | 46.00769 | 2.00297 | 27998 ft | 439 kts | 272° |
| 2026-05-03 20:34 | 46.01130 | 1.95928 | 28006 ft | 440 kts | 272° |
| 2026-05-03 20:35 | 46.01849 | 1.87170 | 28004 ft | 441 kts | 272° |
| 2026-05-03 20:35 | 46.02206 | 1.82779 | 27999 ft | 442 kts | 272° |
| 2026-05-03 20:35 | 46.02562 | 1.78391 | 27995 ft | 442 kts | 272° |
| 2026-05-03 20:35 | 46.02918 | 1.73983 | 27996 ft | 443 kts | 272° |
| 2026-05-03 20:36 | 46.03270 | 1.69588 | 27989 ft | 443 kts | 272° |
| 2026-05-03 20:36 | 46.03624 | 1.65170 | 27997 ft | 443 kts | 272° |
| 2026-05-03 20:36 | 46.03973 | 1.60770 | 27996 ft | 443 kts | 272° |
| 2026-05-03 20:37 | 46.04670 | 1.51950 | 27998 ft | 443 kts | 271° |
| 2026-05-03 20:37 | 46.05359 | 1.43129 | 28017 ft | 444 kts | 271° |
| 2026-05-03 20:38 | 46.06042 | 1.34292 | 28006 ft | 444 kts | 271° |
| 2026-05-03 20:38 | 46.06718 | 1.25467 | 27999 ft | 443 kts | 271° |
| 2026-05-03 20:39 | 46.07383 | 1.16694 | 28031 ft | 443 kts | 270° |
| 2026-05-03 20:39 | 46.08044 | 1.07878 | 28004 ft | 442 kts | 270° |
| 2026-05-03 20:39 | 46.08370 | 1.03475 | 27998 ft | 441 kts | 270° |
| 2026-05-03 20:40 | 46.08695 | 0.99085 | 27998 ft | 441 kts | 270° |
| 2026-05-03 20:40 | 46.09018 | 0.94700 | 27985 ft | 440 kts | 270° |
| 2026-05-03 20:40 | 46.09340 | 0.90307 | 27975 ft | 440 kts | 270° |
| 2026-05-03 20:40 | 46.09659 | 0.85927 | 27980 ft | 439 kts | 270° |
| 2026-05-03 20:41 | 46.09977 | 0.81541 | 27973 ft | 439 kts | 270° |
| 2026-05-03 20:41 | 46.10292 | 0.77161 | 27990 ft | 439 kts | 270° |
| 2026-05-03 20:41 | 46.10605 | 0.72791 | 27976 ft | 439 kts | 270° |
| 2026-05-03 20:41 | 46.10917 | 0.68413 | 27973 ft | 439 kts | 269° |
| 2026-05-03 20:42 | 46.11227 | 0.64041 | 27970 ft | 439 kts | 270° |
| 2026-05-03 20:42 | 46.11535 | 0.59663 | 27964 ft | 438 kts | 269° |
| 2026-05-03 20:42 | 46.11843 | 0.55281 | 27967 ft | 438 kts | 269° |
| 2026-05-03 20:42 | 46.12143 | 0.50974 | 27961 ft | 438 kts | 269° |
| 2026-05-03 20:43 | 46.12445 | 0.46609 | 27957 ft | 438 kts | 269° |
| 2026-05-03 20:43 | 46.12746 | 0.42244 | 27961 ft | 438 kts | 269° |
| 2026-05-03 20:43 | 46.13046 | 0.37875 | 27984 ft | 438 kts | 269° |
| 2026-05-03 20:43 | 46.13344 | 0.33496 | 27963 ft | 438 kts | 269° |
| 2026-05-03 20:44 | 46.13640 | 0.29131 | 27955 ft | 437 kts | 269° |
| 2026-05-03 20:44 | 46.13934 | 0.24763 | 27953 ft | 437 kts | 269° |
| 2026-05-03 20:44 | 46.14226 | 0.20408 | 27951 ft | 437 kts | 269° |
| 2026-05-03 20:44 | 46.14517 | 0.16041 | 27948 ft | 437 kts | 269° |
| 2026-05-03 20:45 | 46.14805 | 0.11688 | 27944 ft | 436 kts | 269° |
| 2026-05-03 20:45 | 46.15092 | 0.07335 | 27947 ft | 436 kts | 269° |
| 2026-05-03 20:45 | 46.15377 | 0.02973 | 27952 ft | 436 kts | 269° |
| 2026-05-03 20:45 | 46.15661 | -0.01385 | 27983 ft | 436 kts | 269° |
| 2026-05-03 20:46 | 46.15942 | -0.05737 | 27956 ft | 436 kts | 268° |
| 2026-05-03 20:46 | 46.16222 | -0.10095 | 27958 ft | 436 kts | 268° |
| 2026-05-03 20:46 | 46.16500 | -0.14441 | 27952 ft | 435 kts | 268° |
| 2026-05-03 20:46 | 46.16772 | -0.18720 | 27952 ft | 435 kts | 268° |
| 2026-05-03 20:47 | 46.17046 | -0.23062 | 27971 ft | 434 kts | 268° |
| 2026-05-03 20:47 | 46.17318 | -0.27401 | 27958 ft | 434 kts | 268° |
| 2026-05-03 20:47 | 46.17589 | -0.31744 | 27956 ft | 433 kts | 268° |
| 2026-05-03 20:47 | 46.17858 | -0.36075 | 27951 ft | 433 kts | 268° |
| 2026-05-03 20:48 | 46.18124 | -0.40401 | 27949 ft | 433 kts | 268° |
| 2026-05-03 20:48 | 46.18389 | -0.44731 | 27954 ft | 432 kts | 268° |
| 2026-05-03 20:48 | 46.18651 | -0.49043 | 27946 ft | 432 kts | 268° |
| 2026-05-03 20:48 | 46.18912 | -0.53368 | 27944 ft | 432 kts | 268° |
| 2026-05-03 20:49 | 46.19172 | -0.57684 | 27954 ft | 431 kts | 268° |
| 2026-05-03 20:49 | 46.19430 | -0.62005 | 27946 ft | 432 kts | 268° |
| 2026-05-03 20:49 | 46.19682 | -0.66261 | 27940 ft | 431 kts | 268° |
| 2026-05-03 20:49 | 46.19936 | -0.70596 | 27408 ft | 436 kts | 268° |
| 2026-05-03 20:50 | 46.20191 | -0.74930 | 26801 ft | 430 kts | 268° |
| 2026-05-03 20:50 | 46.20443 | -0.79196 | 26177 ft | 424 kts | 268° |
| 2026-05-03 20:50 | 46.20688 | -0.83409 | 25552 ft | 419 kts | 269° |
| 2026-05-03 20:50 | 46.20927 | -0.87572 | 24915 ft | 414 kts | 269° |
| 2026-05-03 20:51 | 46.21466 | -0.91670 | 24251 ft | 422 kts | 285° |
| 2026-05-03 20:51 | 46.22855 | -0.95432 | 23747 ft | 427 kts | 300° |
| 2026-05-03 20:51 | 46.24884 | -0.98581 | 23200 ft | 433 kts | 314° |
| 2026-05-03 20:51 | 46.27221 | -1.01286 | 22712 ft | 428 kts | 316° |
| 2026-05-03 20:52 | 46.29561 | -1.03916 | 22230 ft | 425 kts | 316° |
| 2026-05-03 20:52 | 46.31900 | -1.06545 | 21767 ft | 427 kts | 316° |
| 2026-05-03 20:52 | 46.34242 | -1.09204 | 21211 ft | 427 kts | 316° |
| 2026-05-03 20:52 | 46.36558 | -1.11859 | 20722 ft | 423 kts | 316° |
| 2026-05-03 20:53 | 46.38847 | -1.14500 | 20235 ft | 418 kts | 316° |
| 2026-05-03 20:53 | 46.41104 | -1.17120 | 19761 ft | 414 kts | 316° |
| 2026-05-03 20:53 | 46.43340 | -1.19723 | 19300 ft | 410 kts | 316° |
| 2026-05-03 20:53 | 46.45545 | -1.22295 | 18858 ft | 406 kts | 317° |
| 2026-05-03 20:54 | 46.47743 | -1.24860 | 18400 ft | 403 kts | 317° |
| 2026-05-03 20:54 | 46.52083 | -1.29933 | 17408 ft | 398 kts | 317° |
| 2026-05-03 20:54 | 46.54228 | -1.32443 | 16945 ft | 395 kts | 317° |
| 2026-05-03 20:55 | 46.56361 | -1.34940 | 16504 ft | 392 kts | 317° |
| 2026-05-03 20:55 | 46.58472 | -1.37414 | 16050 ft | 389 kts | 318° |
| 2026-05-03 20:55 | 46.60734 | -1.39489 | 15586 ft | 394 kts | 336° |
| 2026-05-03 20:55 | 46.63382 | -1.40525 | 15204 ft | 393 kts | 344° |
| 2026-05-03 20:56 | 46.66039 | -1.41449 | 14745 ft | 392 kts | 343° |
| 2026-05-03 20:56 | 46.68678 | -1.42429 | 14299 ft | 391 kts | 343° |
| 2026-05-03 20:56 | 46.71334 | -1.43248 | 13844 ft | 392 kts | 354° |
| 2026-05-03 20:56 | 46.74056 | -1.42910 | 13387 ft | 393 kts | 8° |
| 2026-05-03 20:57 | 46.76747 | -1.42259 | 12906 ft | 391 kts | 8° |
| 2026-05-03 20:57 | 46.79424 | -1.41645 | 12445 ft | 388 kts | 7° |
| 2026-05-03 20:57 | 46.82078 | -1.41059 | 11998 ft | 383 kts | 7° |
| 2026-05-03 20:57 | 46.84691 | -1.40495 | 11563 ft | 376 kts | 7° |
| 2026-05-03 20:58 | 46.87257 | -1.39948 | 11143 ft | 370 kts | 7° |
| 2026-05-03 20:58 | 46.89779 | -1.39414 | 10732 ft | 364 kts | 7° |
| 2026-05-03 20:58 | 46.92245 | -1.38891 | 10316 ft | 351 kts | 7° |
| 2026-05-03 20:58 | 46.94613 | -1.38389 | 9926 ft | 338 kts | 7° |
| 2026-05-03 20:59 | 46.96866 | -1.37910 | 9888 ft | 314 kts | 7° |
| 2026-05-03 20:59 | 46.98959 | -1.37464 | 9840 ft | 294 kts | 7° |
| 2026-05-03 20:59 | 47.01008 | -1.37030 | 9037 ft | 302 kts | 7° |
| 2026-05-03 20:59 | 47.03070 | -1.36594 | 8552 ft | 297 kts | 7° |
| 2026-05-03 21:00 | 47.05090 | -1.36164 | 8178 ft | 290 kts | 7° |
| 2026-05-03 21:00 | 47.05738 | -1.36026 | 8066 ft | 287 kts | 7° |
| 2026-05-03 21:00 | 47.08958 | -1.35340 | 7516 ft | 276 kts | 7° |
| 2026-05-03 21:00 | 47.10845 | -1.34937 | 7209 ft | 273 kts | 7° |
| 2026-05-03 21:01 | 47.12715 | -1.34539 | 6923 ft | 270 kts | 7° |
| 2026-05-03 21:01 | 47.14572 | -1.34143 | 6665 ft | 269 kts | 7° |
| 2026-05-03 21:01 | 47.16447 | -1.33742 | 6423 ft | 275 kts | 7° |
| 2026-05-03 21:01 | 47.18356 | -1.33335 | 6142 ft | 277 kts | 7° |
| 2026-05-03 21:02 | 47.20257 | -1.32928 | 5850 ft | 275 kts | 7° |
| 2026-05-03 21:02 | 47.22136 | -1.32525 | 5574 ft | 271 kts | 7° |
| 2026-05-03 21:02 | 47.23993 | -1.32127 | 5309 ft | 268 kts | 7° |
| 2026-05-03 21:02 | 47.25829 | -1.31781 | 5053 ft | 264 kts | 360° |
| 2026-05-03 21:03 | 47.27559 | -1.32390 | 4827 ft | 255 kts | 328° |
| 2026-05-03 21:03 | 47.28905 | -1.34011 | 4582 ft | 248 kts | 311° |
| 2026-05-03 21:03 | 47.30015 | -1.35900 | 4334 ft | 245 kts | 308° |
| 2026-05-03 21:03 | 47.31048 | -1.37868 | 4078 ft | 241 kts | 297° |
| 2026-05-03 21:04 | 47.31438 | -1.40120 | 3848 ft | 233 kts | 266° |
| 2026-05-03 21:04 | 47.31017 | -1.42377 | 3627 ft | 228 kts | 240° |
| 2026-05-03 21:04 | 47.30025 | -1.44143 | 3424 ft | 223 kts | 221° |
| 2026-05-03 21:04 | 47.28848 | -1.45594 | 3212 ft | 219 kts | 220° |
| 2026-05-03 21:05 | 47.28074 | -1.46544 | 3084 ft | 216 kts | 220° |
| 2026-05-03 21:05 | 47.26913 | -1.47961 | 3040 ft | 219 kts | 220° |
| 2026-05-03 21:05 | 47.25372 | -1.49853 | 2966 ft | 221 kts | 220° |
| 2026-05-03 21:05 | 47.24559 | -1.50854 | 2425 ft | 239 kts | 220° |
| 2026-05-03 21:06 | 47.23533 | -1.52415 | 1926 ft | 247 kts | 236° |
| 2026-05-03 21:06 | 47.22677 | -1.54517 | 1810 ft | 230 kts | 243° |
| 2026-05-03 21:06 | 47.21744 | -1.56180 | 1690 ft | 209 kts | 217° |
| 2026-05-03 21:06 | 47.20447 | -1.57248 | 1055 ft | 212 kts | 205° |
| 2026-05-03 21:07 | 47.19190 | -1.58201 | 751 ft | 198 kts | 212° |
| 2026-05-03 21:07 | 47.18013 | -1.59095 | 515 ft | 179 kts | 204° |
| 2026-05-03 21:07 | 47.16911 | -1.59852 | 285 ft | 174 kts | 210° |
| 2026-05-03 21:07 | 47.15852 | -1.60674 | 99 ft | 171 kts | 208° |
| 2026-05-03 21:08 | 47.14953 | -1.61362 | 96 ft | 78 kts | 207° |
| 2026-05-03 21:08 | 47.14650 | -1.61587 | 99 ft | 45 kts | 207° |
| 2026-05-03 21:08 | 47.14387 | -1.61785 | 94 ft | 42 kts | 207° |
| 2026-05-03 21:08 | 47.14202 | -1.61890 | 88 ft | 31 kts | 179° |
| 2026-05-03 21:09 | 47.14159 | -1.61834 | 90 ft | 12 kts | 111° |
| 2026-05-03 21:09 | 47.14188 | -1.61675 | 90 ft | 16 kts | 40° |
| 2026-05-03 21:09 | 47.14280 | -1.61591 | 92 ft | 15 kts | 27° |
| 2026-05-03 21:09 | 47.14373 | -1.61527 | 92 ft | 15 kts | 27° |
| 2026-05-03 21:10 | 47.14461 | -1.61458 | 95 ft | 14 kts | 29° |
| 2026-05-03 21:10 | 47.14546 | -1.61396 | 94 ft | 13 kts | 24° |
| 2026-05-03 21:10 | 47.14625 | -1.61332 | 96 ft | 13 kts | 30° |
| 2026-05-03 21:10 | 47.14712 | -1.61263 | 97 ft | 17 kts | 26° |
| 2026-05-03 21:11 | 47.14856 | -1.61152 | 97 ft | 28 kts | 28° |
| 2026-05-03 21:11 | 47.15027 | -1.61032 | 97 ft | 26 kts | 32° |
| 2026-05-03 21:11 | 47.15183 | -1.60907 | 98 ft | 25 kts | 26° |
| 2026-05-03 21:11 | 47.15330 | -1.60793 | 102 ft | 23 kts | 25° |
| 2026-05-03 21:12 | 47.15470 | -1.60691 | 101 ft | 22 kts | 27° |
| 2026-05-03 21:12 | 47.15577 | -1.60555 | 101 ft | 18 kts | 90° |
| 2026-05-03 21:12 | 47.15523 | -1.60399 | 100 ft | 17 kts | 99° |
| 2026-05-03 21:12 | 47.15573 | -1.60256 | 100 ft | 16 kts | 79° |
| 2026-05-03 21:13 | 47.15497 | -1.60146 | 99 ft | 16 kts | 144° |
| 2026-05-03 21:13 | 47.15479 | -1.60126 | 100 ft | 0 kts | 144° |